Flugplatz Dortmund

Bericht für EDLW

vom 26.07. um 15:20 UTC

Wind 6 kt aus 230°

Sichtweite 10 km oder mehr

gering bewölkt in 1800 ft

Temperatur 23.0°C

Taupunkt 17.0°C

Luftfeuchtigkeit 69%

Luftdruck 1010 hPa

EDLW 261520Z 23006KT 9999 FEW018 23/17 Q1010

Prognose für EDLW

vom 26.07. um 11:00 UTC

Zwischen 12:00 UTC und 12:00 UTC

Wind 10 kt aus 220°

Sichtweite 10 km oder mehr

aufgelockert bewölkt in 3500 ft


Zwischen 12:00 UTC und 18:00 UTC zeitweise mit einer Wahrscheinlichkeit von 30%

Wind 15 kt aus 210° in Böen 25 kt

Code: TSRA

aufgebrochene Bewölkung in 3000 ft


Zwischen 19:00 UTC und 02:00 UTC zeitweise

Wind 5 kt aus 190°

TAF EDLW 261100Z 2612/2712 22010KT 9999 SCT035 PROB30 TEMPO 2612/2618 21015G25KT TSRA BKN030CB TEMPO 2619/2702 19005KT
Impressum